This is the latest recevied weather packets stored in our database for station/object K4FB. If no packets are shown the sender has not sent any weather packets the latest 10 day(s).
| Time | Temp. | Humidity | Pressure | Rain* | Wind** | Luminosity | Snow |
|---|---|---|---|---|---|---|---|
| 1777375508 | 19.44° C | 93% | 1020 hPa | 0 mm | - | - | - |
| 1777374304 | 19.44° C | 93% | 1019.8 hPa | 0 mm | - | - | - |
| 1777373707 | 19.44° C | 93% | 1019.7 hPa | 0 mm | - | - | - |
| 1777373402 | 19.44° C | 93% | 1019.6 hPa | 0 mm | - | - | - |
| 1777368304 | 19.44° C | 92% | 1019 hPa | 0 mm | - | - | - |
| 1777367729 | 19.44° C | 92% | 1019 hPa | 0 mm | - | - | - |
| 1777360209 | 18.89° C | 90% | 1019.3 hPa | 0 mm | - | - | - |
| 1777356027 | 20° C | 88% | 1019.7 hPa | 0 mm | - | - | - |
| 1777353602 | 20.56° C | 86% | 1019.8 hPa | 0 mm | - | - | - |
| 1777352708 | 20.56° C | 86% | 1019.8 hPa | 0 mm | - | - | - |
| 1777348207 | 21.67° C | 82% | 1019.9 hPa | 0 mm | - | - | - |
| 1777347923 | 21.67° C | 82% | 1019.9 hPa | 0 mm | - | - | - |
| 1777345804 | 22.22° C | 79% | 1019.7 hPa | 0 mm | - | - | - |
| 1777345507 | 22.22° C | 79% | 1019.8 hPa | 0 mm | - | - | - |
| 1777344608 | 22.78° C | 78% | 1019.4 hPa | 0 mm | - | - | - |
| 1777344007 | 22.78° C | 78% | 1019.5 hPa | 0 mm | - | - | - |
| 1777343706 | 22.78° C | 78% | 1019.6 hPa | 0 mm | - | - | - |
| 1777343423 | 22.78° C | 78% | 1019.6 hPa | 0 mm | - | - | - |
| 1777342808 | 22.78° C | 78% | 1019.4 hPa | 0 mm | - | - | - |
| 1777341904 | 22.78° C | 77% | 1019.4 hPa | 0 mm | - | - | - |
| 1777340108 | 23.33° C | 77% | 1019.1 hPa | 0 mm | - | - | - |
| 1777338024 | 23.89° C | 75% | 1018.5 hPa | 0 mm | - | - | - |
| 1777334410 | 25° C | 71% | 1017.7 hPa | 0 mm | - | - | - |
| 1777333510 | 25° C | 69% | 1017.5 hPa | 0 mm | - | - | - |
| 1777328704 | 29.44° C | 57% | 1016.9 hPa | 0 mm | - | - | - |
* Rain latest hour (hover to see other rain measurements)
** Current wind speed in m/s (hover to see current wind gust speed)